Flight Track Log - Related Links

Times and Time Zones

All times are in EDT time to prevent confusion due to time zone crossing. See the EJA922 flight status page for this flight to view local times or setup timezone preferences in your user account.

Time Position Orientation Groundspeed Altitude Reporting Facility
EDT Latitude Longitude Course Direction KTS MPH feet Rate Location/Type
Tue 09:35:40 PM 41.9667 -87.9167 255° West 182 209 1,900  Level Chicago TRACON
Tue 09:36:40 PM 41.9500 -88.0000 255° West 251 289 5,000 1,684 Climbing Chicago TRACON
Tue 09:37:34 PM 41.9667 -88.1000 283° West 268 308 5,100 306 Climbing Chicago TRACON
Tue 09:38:18 PM 41.9722 -88.1581 277° West 265 305 5,500 2,094 Climbing Chicago Center
Tue 09:39:20 PM 42.0047 -88.2539 295° West 283 326 8,800 2,903 Climbing Chicago Center
Tue 09:40:22 PM 42.0033 -88.3692 269° West 302 348 11,500 2,829 Climbing Chicago Center
Tue 09:41:23 PM 41.9889 -88.4897 261° West 327 376 14,600 2,878 Climbing Chicago Center
Tue 09:42:25 PM 41.9536 -88.6069 248° West 336 387 17,400 2,419 Climbing Chicago Center
Tue 09:43:27 PM 41.9161 -88.7311 248° West 353 406 19,600 2,419 Climbing Chicago Center
Tue 09:44:29 PM 41.8714 -88.8786 248° West 364 419 22,400 2,565 Climbing Chicago Center
Tue 09:45:31 PM 41.8317 -89.0094 248° West 372 428 24,900 2,129 Climbing Chicago Center
Tue 09:46:33 PM 41.7964 -89.1278 248° West 378 435 26,800 1,887 Climbing Chicago Center
Tue 09:47:35 PM 41.7539 -89.2633 247° West 392 451 28,800 2,146 Climbing Chicago Center
Tue 09:48:36 PM 41.7036 -89.4289 248° West 401 461 31,200 2,146 Climbing Chicago Center
Tue 09:49:38 PM 41.6611 -89.5681 248° West 405 466 33,200 1,839 Climbing Chicago Center
Tue 09:50:40 PM 41.6164 -89.7103 247° West 413 475 35,000 1,548 Climbing Chicago Center
Tue 09:51:42 PM 41.5708 -89.8575 248° West 428 493 36,400 1,355 Climbing Chicago Center
Tue 09:52:44 PM 41.5233 -90.0067 247° West 437 503 37,800 1,317 Climbing Chicago Center
Tue 09:53:45 PM 41.4756 -90.1586 247° West 444 511 39,100 1,073 Climbing Chicago Center
Tue 09:54:47 PM 41.4181 -90.3403 247° West 446 513 40,000 439 Climbing Chicago Center
Tue 09:55:48 PM 41.3669 -90.4989 247° West 466 536 40,000  Level Chicago Center
Tue 09:56:50 PM 41.3119 -90.6575 245° Southwest 475 547 40,000  Level Chicago Center
Tue 09:57:51 PM 41.2408 -90.8047 237° Southwest 475 547 40,000  Level Chicago Center
Tue 09:58:53 PM 41.1722 -90.9447 237° Southwest 458 527 40,000  Level Chicago Center
Tue 09:59:54 PM 41.1083 -91.0772 237° Southwest 433 498 40,000  Level Chicago Center
Tue 10:00:56 PM 41.0400 -91.2147 237° Southwest 444 511 40,000  Level Chicago Center
Tue 10:01:58 PM 40.9628 -91.3719 237° Southwest 452 520 40,000  Level Chicago Center
Tue 10:02:59 PM 40.8958 -91.5075 237° Southwest 445 512 40,000  Level Chicago Center
Tue 10:04:01 PM 40.8283 -91.6417 236° Southwest 443 510 40,000  Level Chicago Center
Tue 10:05:02 PM 40.7606 -91.7747 236° Southwest 441 507 40,000  Level Chicago Center
Tue 10:06:04 PM 40.6808 -91.9353 237° Southwest 440 506 40,000  Level Chicago Center
Tue 10:07:05 PM 40.6136 -92.0678 236° Southwest 440 506 40,000  Level Chicago Center
Tue 10:08:02 PM 40.5592 -92.1744 236° Southwest 441 507 40,000  Level Kansas City Center
Tue 10:09:03 PM 40.4917 -92.3083 236° Southwest 444 511 40,000  Level Kansas City Center
Tue 10:10:04 PM 40.4158 -92.4567 236° Southwest 440 506 40,000  Level Kansas City Center
Tue 10:11:04 PM 40.3478 -92.5875 236° Southwest 437 503 40,000  Level Kansas City Center
Tue 10:12:05 PM 40.2764 -92.7300 237° Southwest 429 494 40,000  Level Kansas City Center
Tue 10:13:09 PM 40.2083 -92.8536 234° Southwest 437 503 40,000  Level Kansas City Center
Tue 10:14:09 PM 40.1428 -92.9806 236° Southwest 437 503 40,000  Level Kansas City Center
Tue 10:15:09 PM 40.0650 -93.1289 236° Southwest 440 506 40,000  Level Kansas City Center
Tue 10:16:12 PM 39.9969 -93.2592 236° Southwest 439 505 40,000  Level Kansas City Center
Tue 10:17:13 PM 39.9267 -93.3897 235° Southwest 442 509 40,000  Level Kansas City Center
Tue 10:18:13 PM 39.8589 -93.5189 236° Southwest 438 504 40,000  Level Kansas City Center
Tue 10:19:17 PM 39.7897 -93.6456 235° Southwest 433 498 40,000  Level Kansas City Center
Tue 10:20:17 PM 39.7158 -93.7869 236° Southwest 418 481 40,000  Level Kansas City Center
Tue 10:21:18 PM 39.6519 -93.9075 235° Southwest 423 487 40,000  Level Kansas City Center
Tue 10:22:21 PM 39.5764 -94.0481 235° Southwest 427 491 40,000  Level Kansas City Center
Tue 10:23:22 PM 39.5114 -94.1689 235° Southwest 427 491 40,000  Level Kansas City Center
Tue 10:24:21 PM 39.4458 -94.2900 235° Southwest 428 493 40,000  Level Kansas City Center
Tue 10:25:25 PM 39.3703 -94.4281 235° Southwest 422 486 40,000  Level Kansas City Center
Tue 10:26:26 PM 39.3050 -94.5458 234° Southwest 419 482 40,000  Level Kansas City Center
Tue 10:27:27 PM 39.2281 -94.6853 235° Southwest 424 488 40,000  Level Kansas City Center
Tue 10:28:29 PM 39.1600 -94.8064 234° Southwest 445 512 40,000  Level Kansas City Center
Tue 10:29:30 PM 39.0956 -94.9244 235° Southwest 417 480 40,000  Level Kansas City Center
Tue 10:30:32 PM 39.0167 -95.0639 234° Southwest 417 480 40,000 -537 Level Kansas City Center
Tue 10:31:33 PM 38.9508 -95.1836 235° Southwest 431 496 38,900 -1,073 Descending Kansas City Center
Tue 10:32:35 PM 38.8819 -95.3086 235° Southwest 443 510 37,800 -1,131 Descending Kansas City Center
Tue 10:33:35 PM 38.8022 -95.4508 234° Southwest 437 503 36,600 -1,131 Descending Kansas City Center
Tue 10:34:37 PM 38.7328 -95.5742 234° Southwest 443 510 35,500 -1,016 Descending Kansas City Center
Tue 10:35:39 PM 38.6631 -95.6986 234° Southwest 448 516 34,500 -1,131 Descending Kansas City Center
Tue 10:36:39 PM 38.5806 -95.8431 234° Southwest 450 518 33,200 -1,415 Descending Kansas City Center
Tue 10:37:42 PM 38.5111 -95.9667 234° Southwest 448 516 31,600 -1,854 Descending Kansas City Center
Tue 10:38:42 PM 38.4264 -96.1117 233° Southwest 457 526 29,400 -1,983 Descending Kansas City Center
Tue 10:39:43 PM 38.3517 -96.2428 234° Southwest 475 547 27,600 -1,770 Descending Kansas City Center
Tue 10:40:44 PM 38.2756 -96.3739 234° Southwest 480 552 25,800 -2,262 Descending Kansas City Center
Tue 10:41:45 PM 38.1869 -96.5272 234° Southwest 476 548 23,000 -2,323 Descending Kansas City Center
Tue 10:42:48 PM 38.1136 -96.6533 234° Southwest 430 495 21,000 -1,680 Descending Kansas City Center
Tue 10:43:25 PM 38.0700 -96.7228 231° Southwest 391 450 20,200 -2,354 Descending Kansas City Center
Tue 10:44:07 PM 38.0253 -96.7992 233° Southwest 392 451 17,900 -3,714 Descending Kansas City Center
Tue 10:44:49 PM 37.9803 -96.8717 232° Southwest 395 455 15,000 -3,786 Descending Kansas City Center
Tue 10:45:50 PM 37.9069 -96.9772 229° Southwest 399 459 11,400 -2,640 Descending Kansas City Center
Tue 10:46:54 PM 37.8506 -97.0608 230° Southwest 317 365 9,500 -2,129 Descending Kansas City Center
Tue 10:47:54 PM 37.8011 -97.1336 229° Southwest 278 320 7,000 -1,426 Descending Kansas City Center
Tue 10:48:56 PM 37.7511 -97.1975 225° Southwest 261 300 6,600 -488 Descending Kansas City Center
Tue 10:49:57 PM 37.6953 -97.2458 214° Southwest 244 281 6,000 -885 Descending Kansas City Center
Tue 10:50:58 PM 37.6444 -97.2914 215° Southwest 228 262 4,800 -984 Descending Kansas City Center
Tue 10:51:59 PM 37.5847 -97.3269 205° Southwest 231 266 4,000 -893 Descending Kansas City Center
Tue 10:52:59 PM 37.5528 -97.3717 228° Southwest 207 238 3,000 -484 Descending Kansas City Center
Tue 10:54:03 PM 37.5672 -97.4414 285° West 183 211 3,000 -387 Level Kansas City Center
Tue 10:55:03 PM 37.5997 -97.4458 354° North 151 174 2,200 -689 Descending Kansas City Center
Tue 10:56:05 PM 37.6319 -97.4319 19° North 132 152 1,600 -390 Descending Kansas City Center
Tue 10:57:06 PM 37.6633 -97.4175 20° North 130 150 1,400 -197 Descending Kansas City Center

Login

Don't have an account? Register now (free) for customized features, flight alerts, and more!